sensor_id;sensor_type;location;lat;lon;timestamp;pressure;altitude;pressure_sealevel;temperature;humidity
43298;BME280;28892;55.640;37.532;2024-03-06T00:01:45;99789.94;;;-0.08;45.34
43298;BME280;28892;55.640;37.532;2024-03-06T00:04:15;99789.78;;;-0.05;45.56
43298;BME280;28892;55.640;37.532;2024-03-06T00:06:42;99793.50;;;-0.09;45.22
43298;BME280;28892;55.640;37.532;2024-03-06T00:09:07;99794.06;;;-0.31;45.52
43298;BME280;28892;55.640;37.532;2024-03-06T00:11:34;99785.31;;;-0.45;46.00
43298;BME280;28892;55.640;37.532;2024-03-06T00:14:07;99792.97;;;-0.56;46.29
43298;BME280;28892;55.640;37.532;2024-03-06T00:16:37;99793.75;;;-0.54;45.85
43298;BME280;28892;55.640;37.532;2024-03-06T00:19:05;99788.63;;;-0.55;45.87
43298;BME280;28892;55.640;37.532;2024-03-06T00:21:32;99791.78;;;-0.65;46.08
43298;BME280;28892;55.640;37.532;2024-03-06T00:24:07;99790.56;;;-0.59;45.87
43298;BME280;28892;55.640;37.532;2024-03-06T00:26:35;99792.59;;;-0.50;45.92
43298;BME280;28892;55.640;37.532;2024-03-06T00:29:06;99792.13;;;-0.42;45.62
43298;BME280;28892;55.640;37.532;2024-03-06T00:36:13;99790.69;;;-0.33;44.86
43298;BME280;28892;55.640;37.532;2024-03-06T00:38:44;99789.66;;;-0.31;45.19
43298;BME280;28892;55.640;37.532;2024-03-06T00:41:21;99787.34;;;-0.35;45.10
43298;BME280;28892;55.640;37.532;2024-03-06T00:43:49;99786.31;;;-0.33;45.13
43298;BME280;28892;55.640;37.532;2024-03-06T00:46:16;99792.47;;;-0.34;45.10
43298;BME280;28892;55.640;37.532;2024-03-06T00:48:43;99798.84;;;-0.52;45.37
43298;BME280;28892;55.640;37.532;2024-03-06T00:51:19;99796.44;;;-0.55;45.35
43298;BME280;28892;55.640;37.532;2024-03-06T00:53:45;99799.84;;;-0.55;45.48
43298;BME280;28892;55.640;37.532;2024-03-06T00:56:11;99794.91;;;-0.45;45.39
43298;BME280;28892;55.640;37.532;2024-03-06T00:58:48;99803.13;;;-0.51;45.29
43298;BME280;28892;55.640;37.532;2024-03-06T01:01:22;99798.38;;;-0.59;45.24
43298;BME280;28892;55.640;37.532;2024-03-06T01:04:27;99791.53;;;-0.75;45.49
43298;BME280;28892;55.640;37.532;2024-03-06T01:06:55;99794.78;;;-0.86;45.64
43298;BME280;28892;55.640;37.532;2024-03-06T01:09:27;99780.19;;;-0.88;45.67
43298;BME280;28892;55.640;37.532;2024-03-06T01:12:07;99785.50;;;-0.90;45.58
43298;BME280;28892;55.640;37.532;2024-03-06T01:14:46;99788.38;;;-0.94;45.59
43298;BME280;28892;55.640;37.532;2024-03-06T01:17:22;99789.22;;;-1.08;45.85
43298;BME280;28892;55.640;37.532;2024-03-06T01:19:50;99791.81;;;-1.08;45.81
43298;BME280;28892;55.640;37.532;2024-03-06T01:22:19;99786.53;;;-1.07;45.67
43298;BME280;28892;55.640;37.532;2024-03-06T01:24:49;99786.34;;;-1.04;45.59
43298;BME280;28892;55.640;37.532;2024-03-06T01:27:16;99788.09;;;-1.04;45.52
43298;BME280;28892;55.640;37.532;2024-03-06T01:29:46;99789.97;;;-1.06;45.53
43298;BME280;28892;55.640;37.532;2024-03-06T01:32:12;99784.66;;;-1.05;45.39
43298;BME280;28892;55.640;37.532;2024-03-06T01:34:43;99788.00;;;-1.03;45.50
43298;BME280;28892;55.640;37.532;2024-03-06T01:37:13;99787.94;;;-1.01;45.55
43298;BME280;28892;55.640;37.532;2024-03-06T01:39:39;99788.00;;;-1.03;45.47
43298;BME280;28892;55.640;37.532;2024-03-06T01:42:10;99790.53;;;-1.01;45.34
43298;BME280;28892;55.640;37.532;2024-03-06T01:44:39;99787.72;;;-0.98;45.40
43298;BME280;28892;55.640;37.532;2024-03-06T01:47:13;99789.88;;;-0.90;45.34
43298;BME280;28892;55.640;37.532;2024-03-06T01:52:48;99788.59;;;-0.97;45.53
43298;BME280;28892;55.640;37.532;2024-03-06T01:55:14;99794.34;;;-0.92;45.39
43298;BME280;28892;55.640;37.532;2024-03-06T01:57:50;99792.75;;;-0.80;45.01
43298;BME280;28892;55.640;37.532;2024-03-06T02:03:35;99799.44;;;-0.76;44.23
43298;BME280;28892;55.640;37.532;2024-03-06T02:06:02;99799.34;;;-0.89;44.53
43298;BME280;28892;55.640;37.532;2024-03-06T02:08:28;99799.09;;;-0.99;44.76
43298;BME280;28892;55.640;37.532;2024-03-06T02:10:54;99805.13;;;-0.99;44.77
43298;BME280;28892;55.640;37.532;2024-03-06T02:13:23;99806.69;;;-0.96;44.61
43298;BME280;28892;55.640;37.532;2024-03-06T02:15:48;99810.44;;;-1.00;44.73
43298;BME280;28892;55.640;37.532;2024-03-06T02:18:14;99808.00;;;-0.89;44.54
43298;BME280;28892;55.640;37.532;2024-03-06T02:20:45;99801.69;;;-0.99;44.55
43298;BME280;28892;55.640;37.532;2024-03-06T02:23:13;99801.97;;;-1.04;44.48
43298;BME280;28892;55.640;37.532;2024-03-06T02:25:40;99800.69;;;-0.96;44.29
43298;BME280;28892;55.640;37.532;2024-03-06T02:28:34;99807.09;;;-1.02;44.42
43298;BME280;28892;55.640;37.532;2024-03-06T02:31:05;99809.97;;;-1.07;44.54
43298;BME280;28892;55.640;37.532;2024-03-06T02:33:32;99803.63;;;-1.03;44.65
43298;BME280;28892;55.640;37.532;2024-03-06T02:36:00;99803.44;;;-1.00;44.64
43298;BME280;28892;55.640;37.532;2024-03-06T02:38:29;99808.50;;;-0.96;44.48
43298;BME280;28892;55.640;37.532;2024-03-06T02:40:55;99799.16;;;-1.01;44.63
43298;BME280;28892;55.640;37.532;2024-03-06T02:43:24;99795.75;;;-1.01;44.44
43298;BME280;28892;55.640;37.532;2024-03-06T02:45:49;99797.03;;;-1.08;44.44
43298;BME280;28892;55.640;37.532;2024-03-06T02:48:15;99799.09;;;-1.14;44.51
43298;BME280;28892;55.640;37.532;2024-03-06T02:50:43;99800.00;;;-1.15;44.64
43298;BME280;28892;55.640;37.532;2024-03-06T02:53:09;99809.88;;;-1.20;44.73
43298;BME280;28892;55.640;37.532;2024-03-06T02:55:35;99811.81;;;-1.23;44.85
43298;BME280;28892;55.640;37.532;2024-03-06T02:58:02;99822.38;;;-1.41;44.90
43298;BME280;28892;55.640;37.532;2024-03-06T03:00:40;99825.53;;;-1.50;45.04
43298;BME280;28892;55.640;37.532;2024-03-06T03:03:15;99824.41;;;-1.61;45.13
43298;BME280;28892;55.640;37.532;2024-03-06T03:05:41;99830.13;;;-1.70;45.19
43298;BME280;28892;55.640;37.532;2024-03-06T03:08:06;99838.00;;;-1.72;45.37
43298;BME280;28892;55.640;37.532;2024-03-06T03:10:33;99835.66;;;-1.76;45.35
43298;BME280;28892;55.640;37.532;2024-03-06T03:13:02;99840.13;;;-1.78;45.43
43298;BME280;28892;55.640;37.532;2024-03-06T03:15:33;99838.69;;;-1.84;45.46
43298;BME280;28892;55.640;37.532;2024-03-06T03:18:03;99843.66;;;-1.79;45.39
43298;BME280;28892;55.640;37.532;2024-03-06T03:20:41;99848.78;;;-1.78;45.51
43298;BME280;28892;55.640;37.532;2024-03-06T03:23:11;99851.44;;;-1.79;45.32
43298;BME280;28892;55.640;37.532;2024-03-06T03:25:43;99849.97;;;-1.84;45.35
43298;BME280;28892;55.640;37.532;2024-03-06T03:28:09;99848.94;;;-1.81;45.36
43298;BME280;28892;55.640;37.532;2024-03-06T03:30:35;99857.31;;;-1.76;45.27
43298;BME280;28892;55.640;37.532;2024-03-06T03:33:01;99857.13;;;-1.73;45.33
43298;BME280;28892;55.640;37.532;2024-03-06T03:35:31;99864.88;;;-1.71;45.25
43298;BME280;28892;55.640;37.532;2024-03-06T03:37:59;99862.00;;;-1.66;45.18
43298;BME280;28892;55.640;37.532;2024-03-06T03:40:36;99862.59;;;-1.77;45.17
43298;BME280;28892;55.640;37.532;2024-03-06T03:46:34;99848.94;;;-1.97;45.34
43298;BME280;28892;55.640;37.532;2024-03-06T03:49:43;99852.59;;;-2.00;45.27
43298;BME280;28892;55.640;37.532;2024-03-06T03:52:41;99858.44;;;-1.96;45.28
43298;BME280;28892;55.640;37.532;2024-03-06T03:55:25;99856.38;;;-2.05;45.26
43298;BME280;28892;55.640;37.532;2024-03-06T03:58:05;99854.66;;;-2.22;45.65
43298;BME280;28892;55.640;37.532;2024-03-06T04:00:33;99855.00;;;-2.13;45.45
43298;BME280;28892;55.640;37.532;2024-03-06T04:02:59;99860.16;;;-2.11;45.39
43298;BME280;28892;55.640;37.532;2024-03-06T04:05:43;99855.00;;;-2.13;45.44
43298;BME280;28892;55.640;37.532;2024-03-06T04:08:35;99856.88;;;-2.15;45.48
43298;BME280;28892;55.640;37.532;2024-03-06T04:11:06;99861.47;;;-2.20;45.55
43298;BME280;28892;55.640;37.532;2024-03-06T04:13:36;99853.66;;;-2.20;45.67
43298;BME280;28892;55.640;37.532;2024-03-06T04:16:04;99852.84;;;-2.20;45.50
43298;BME280;28892;55.640;37.532;2024-03-06T04:18:31;99856.03;;;-2.31;45.49
43298;BME280;28892;55.640;37.532;2024-03-06T04:21:05;99858.19;;;-2.40;45.67
43298;BME280;28892;55.640;37.532;2024-03-06T04:26:30;99853.59;;;-2.34;45.54
43298;BME280;28892;55.640;37.532;2024-03-06T04:28:59;99844.19;;;-2.21;45.45
43298;BME280;28892;55.640;37.532;2024-03-06T04:31:26;99856.50;;;-2.08;45.48
43298;BME280;28892;55.640;37.532;2024-03-06T04:33:54;99846.34;;;-1.97;45.20
43298;BME280;28892;55.640;37.532;2024-03-06T04:36:25;99847.28;;;-1.98;45.12
43298;BME280;28892;55.640;37.532;2024-03-06T04:38:50;99856.00;;;-2.15;45.22
43298;BME280;28892;55.640;37.532;2024-03-06T04:41:18;99853.41;;;-2.31;45.33
43298;BME280;28892;55.640;37.532;2024-03-06T04:43:45;99848.81;;;-2.26;45.43
43298;BME280;28892;55.640;37.532;2024-03-06T04:52:25;99856.31;;;-1.73;44.90
43298;BME280;28892;55.640;37.532;2024-03-06T04:54:53;99854.09;;;-1.65;44.87
43298;BME280;28892;55.640;37.532;2024-03-06T04:57:32;99846.91;;;-1.76;44.53
43298;BME280;28892;55.640;37.532;2024-03-06T05:00:22;99856.47;;;-1.76;44.67
43298;BME280;28892;55.640;37.532;2024-03-06T05:05:41;99851.03;;;-1.88;44.92
43298;BME280;28892;55.640;37.532;2024-03-06T05:08:07;99838.44;;;-1.79;45.18
43298;BME280;28892;55.640;37.532;2024-03-06T05:10:33;99848.22;;;-1.69;45.05
43298;BME280;28892;55.640;37.532;2024-03-06T05:13:03;99847.16;;;-1.64;44.96
43298;BME280;28892;55.640;37.532;2024-03-06T05:15:31;99843.09;;;-1.54;44.78
43298;BME280;28892;55.640;37.532;2024-03-06T05:17:56;99842.91;;;-1.51;44.76
43298;BME280;28892;55.640;37.532;2024-03-06T05:20:24;99848.69;;;-1.46;44.87
43298;BME280;28892;55.640;37.532;2024-03-06T05:25:59;99850.88;;;-1.54;44.27
43298;BME280;28892;55.640;37.532;2024-03-06T05:37:08;99850.69;;;-1.06;44.58
43298;BME280;28892;55.640;37.532;2024-03-06T05:39:37;99850.25;;;-0.69;44.13
43298;BME280;28892;55.640;37.532;2024-03-06T05:42:14;99854.38;;;-0.37;43.76
43298;BME280;28892;55.640;37.532;2024-03-06T05:44:46;99864.53;;;-0.33;43.54
43298;BME280;28892;55.640;37.532;2024-03-06T05:47:17;99864.19;;;-0.13;43.23
43298;BME280;28892;55.640;37.532;2024-03-06T05:49:47;99859.84;;;0.15;43.57
43298;BME280;28892;55.640;37.532;2024-03-06T05:52:13;99858.78;;;0.45;42.42
43298;BME280;28892;55.640;37.532;2024-03-06T05:54:43;99855.47;;;0.68;42.25
43298;BME280;28892;55.640;37.532;2024-03-06T05:57:18;99855.47;;;0.68;42.39
43298;BME280;28892;55.640;37.532;2024-03-06T05:59:45;99859.47;;;0.87;42.07
43298;BME280;28892;55.640;37.532;2024-03-06T06:02:14;99871.25;;;1.06;41.68
43298;BME280;28892;55.640;37.532;2024-03-06T06:07:42;99863.75;;;1.27;40.27
43298;BME280;28892;55.640;37.532;2024-03-06T06:10:19;99864.03;;;1.35;40.61
43298;BME280;28892;55.640;37.532;2024-03-06T06:12:55;99872.22;;;1.18;39.75
43298;BME280;28892;55.640;37.532;2024-03-06T06:15:26;99868.75;;;1.17;40.87
43298;BME280;28892;55.640;37.532;2024-03-06T06:17:53;99867.34;;;1.50;42.01
43298;BME280;28892;55.640;37.532;2024-03-06T06:20:22;99862.69;;;2.04;42.71
43298;BME280;28892;55.640;37.532;2024-03-06T06:22:51;99860.88;;;2.54;42.31
43298;BME280;28892;55.640;37.532;2024-03-06T06:25:20;99863.34;;;2.79;41.97
43298;BME280;28892;55.640;37.532;2024-03-06T06:27:50;99868.47;;;2.92;39.39
43298;BME280;28892;55.640;37.532;2024-03-06T06:30:26;99873.53;;;2.60;38.74
43298;BME280;28892;55.640;37.532;2024-03-06T06:33:05;99872.16;;;2.18;39.55
43298;BME280;28892;55.640;37.532;2024-03-06T06:35:41;99879.63;;;2.36;40.16
43298;BME280;28892;55.640;37.532;2024-03-06T06:38:10;99885.66;;;2.61;40.32
43298;BME280;28892;55.640;37.532;2024-03-06T06:40:36;99882.47;;;2.69;40.17
43298;BME280;28892;55.640;37.532;2024-03-06T06:43:04;99872.94;;;2.68;38.63
43298;BME280;28892;55.640;37.532;2024-03-06T06:45:29;99878.31;;;2.30;38.21
43298;BME280;28892;55.640;37.532;2024-03-06T06:47:56;99880.59;;;2.35;39.41
43298;BME280;28892;55.640;37.532;2024-03-06T06:50:21;99880.25;;;2.40;39.28
43298;BME280;28892;55.640;37.532;2024-03-06T06:52:51;99885.25;;;2.43;37.61
43298;BME280;28892;55.640;37.532;2024-03-06T06:55:17;99888.31;;;2.36;39.30
43298;BME280;28892;55.640;37.532;2024-03-06T06:57:52;99881.41;;;2.11;38.80
43298;BME280;28892;55.640;37.532;2024-03-06T07:00:18;99886.88;;;2.32;39.43
43298;BME280;28892;55.640;37.532;2024-03-06T07:02:47;99890.44;;;2.56;39.49
43298;BME280;28892;55.640;37.532;2024-03-06T07:05:18;99893.47;;;2.74;39.01
43298;BME280;28892;55.640;37.532;2024-03-06T07:16:50;99896.41;;;2.33;38.88
43298;BME280;28892;55.640;37.532;2024-03-06T07:19:31;99889.03;;;2.74;38.85
43298;BME280;28892;55.640;37.532;2024-03-06T07:21:59;99885.44;;;3.11;37.91
43298;BME280;28892;55.640;37.532;2024-03-06T07:27:18;99893.50;;;2.85;35.05
43298;BME280;28892;55.640;37.532;2024-03-06T07:29:48;99893.34;;;2.87;37.53
43298;BME280;28892;55.640;37.532;2024-03-06T07:32:14;99890.88;;;2.85;37.48
43298;BME280;28892;55.640;37.532;2024-03-06T07:34:40;99894.34;;;3.08;36.20
43298;BME280;28892;55.640;37.532;2024-03-06T07:37:09;99897.19;;;2.94;36.07
43298;BME280;28892;55.640;37.532;2024-03-06T07:39:38;99892.88;;;2.82;35.06
43298;BME280;28892;55.640;37.532;2024-03-06T07:42:09;99896.78;;;2.76;36.24
43298;BME280;28892;55.640;37.532;2024-03-06T07:44:38;99908.72;;;2.80;36.31
43298;BME280;28892;55.640;37.532;2024-03-06T07:47:04;99897.94;;;3.07;35.42
43298;BME280;28892;55.640;37.532;2024-03-06T07:49:32;99901.63;;;3.05;36.11
43298;BME280;28892;55.640;37.532;2024-03-06T07:51:58;99905.22;;;3.04;36.34
43298;BME280;28892;55.640;37.532;2024-03-06T07:54:30;99903.06;;;3.09;35.94
43298;BME280;28892;55.640;37.532;2024-03-06T07:56:58;99900.34;;;3.11;36.16
43298;BME280;28892;55.640;37.532;2024-03-06T07:59:25;99893.31;;;3.22;35.19
43298;BME280;28892;55.640;37.532;2024-03-06T08:01:53;99905.25;;;3.27;35.59
43298;BME280;28892;55.640;37.532;2024-03-06T08:04:26;99904.03;;;3.42;35.62
43298;BME280;28892;55.640;37.532;2024-03-06T08:06:57;99906.91;;;3.39;35.72
43298;BME280;28892;55.640;37.532;2024-03-06T08:17:47;99900.81;;;3.50;35.51
43298;BME280;28892;55.640;37.532;2024-03-06T08:28:51;99901.91;;;3.70;35.04
43298;BME280;28892;55.640;37.532;2024-03-06T08:31:30;99911.28;;;3.84;35.08
43298;BME280;28892;55.640;37.532;2024-03-06T08:34:30;99910.50;;;4.16;34.86
43298;BME280;28892;55.640;37.532;2024-03-06T08:45:40;99903.06;;;4.66;32.85
43298;BME280;28892;55.640;37.532;2024-03-06T08:48:13;99898.25;;;4.92;32.98
43298;BME280;28892;55.640;37.532;2024-03-06T08:52:02;99904.31;;;4.83;33.27
43298;BME280;28892;55.640;37.532;2024-03-06T08:55:09;99903.66;;;4.37;31.00
43298;BME280;28892;55.640;37.532;2024-03-06T09:02:11;99898.75;;;4.43;32.55
43298;BME280;28892;55.640;37.532;2024-03-06T09:04:48;99902.50;;;4.62;32.83
43298;BME280;28892;55.640;37.532;2024-03-06T09:07:28;99906.16;;;4.71;32.46
43298;BME280;28892;55.640;37.532;2024-03-06T09:10:08;99896.84;;;4.88;30.07
43298;BME280;28892;55.640;37.532;2024-03-06T09:13:43;99900.50;;;4.22;31.08
43298;BME280;28892;55.640;37.532;2024-03-06T09:26:46;99891.75;;;3.88;32.82
43298;BME280;28892;55.640;37.532;2024-03-06T09:29:13;99894.25;;;3.67;32.76
43298;BME280;28892;55.640;37.532;2024-03-06T09:31:44;99889.00;;;3.56;33.07
43298;BME280;28892;55.640;37.532;2024-03-06T09:34:11;99888.19;;;3.55;32.98
43298;BME280;28892;55.640;37.532;2024-03-06T09:36:47;99884.13;;;3.62;32.07
43298;BME280;28892;55.640;37.532;2024-03-06T09:39:18;99876.13;;;3.64;33.01
43298;BME280;28892;55.640;37.532;2024-03-06T09:42:05;99876.16;;;3.30;32.18
43298;BME280;28892;55.640;37.532;2024-03-06T09:44:45;99882.72;;;3.47;33.81
43298;BME280;28892;55.640;37.532;2024-03-06T09:47:18;99874.59;;;3.50;32.80
43298;BME280;28892;55.640;37.532;2024-03-06T09:49:52;99873.53;;;3.53;32.94
43298;BME280;28892;55.640;37.532;2024-03-06T09:52:23;99875.69;;;3.36;32.81
43298;BME280;28892;55.640;37.532;2024-03-06T09:54:55;99870.44;;;3.59;32.76
43298;BME280;28892;55.640;37.532;2024-03-06T09:57:29;99872.69;;;3.75;33.58
43298;BME280;28892;55.640;37.532;2024-03-06T10:00:02;99877.91;;;3.86;32.33
43298;BME280;28892;55.640;37.532;2024-03-06T10:05:33;99874.22;;;3.66;33.06
43298;BME280;28892;55.640;37.532;2024-03-06T10:08:02;99884.00;;;3.64;33.75
43298;BME280;28892;55.640;37.532;2024-03-06T10:13:25;99873.28;;;3.44;33.09
43298;BME280;28892;55.640;37.532;2024-03-06T10:15:58;99874.72;;;3.71;32.87
43298;BME280;28892;55.640;37.532;2024-03-06T10:18:29;99866.50;;;4.09;29.83
43298;BME280;28892;55.640;37.532;2024-03-06T10:21:05;99856.06;;;3.86;30.20
43298;BME280;28892;55.640;37.532;2024-03-06T10:23:58;99860.59;;;3.84;30.35
43298;BME280;28892;55.640;37.532;2024-03-06T10:26:43;99859.31;;;3.78;31.78
43298;BME280;28892;55.640;37.532;2024-03-06T10:29:14;99867.97;;;4.01;30.85
43298;BME280;28892;55.640;37.532;2024-03-06T10:32:16;99861.81;;;4.24;30.57
43298;BME280;28892;55.640;37.532;2024-03-06T10:34:50;99860.75;;;4.15;31.08
43298;BME280;28892;55.640;37.532;2024-03-06T10:37:18;99866.25;;;4.12;32.12
43298;BME280;28892;55.640;37.532;2024-03-06T10:39:52;99860.53;;;4.07;31.53
43298;BME280;28892;55.640;37.532;2024-03-06T10:45:20;99859.84;;;4.04;31.63
43298;BME280;28892;55.640;37.532;2024-03-06T10:48:01;99859.91;;;4.14;32.23
43298;BME280;28892;55.640;37.532;2024-03-06T10:50:50;99855.38;;;4.49;30.72
43298;BME280;28892;55.640;37.532;2024-03-06T10:53:22;99851.94;;;4.70;29.73
43298;BME280;28892;55.640;37.532;2024-03-06T10:56:04;99843.84;;;4.83;30.40
43298;BME280;28892;55.640;37.532;2024-03-06T10:59:06;99846.72;;;5.01;28.70
43298;BME280;28892;55.640;37.532;2024-03-06T11:02:48;99849.47;;;4.57;30.21
43298;BME280;28892;55.640;37.532;2024-03-06T11:24:36;99823.06;;;5.52;29.74
43298;BME280;28892;55.640;37.532;2024-03-06T11:30:10;99825.09;;;5.28;29.62
43298;BME280;28892;55.640;37.532;2024-03-06T12:57:07;99758.38;;;7.33;24.91
43298;BME280;28892;55.640;37.532;2024-03-06T13:03:57;99762.03;;;6.37;27.48
43298;BME280;28892;55.640;37.532;2024-03-06T13:06:28;99752.75;;;6.52;26.73
43298;BME280;28892;55.640;37.532;2024-03-06T13:09:11;99755.53;;;6.41;27.44
43298;BME280;28892;55.640;37.532;2024-03-06T13:12:19;99765.25;;;6.31;27.78
43298;BME280;28892;55.640;37.532;2024-03-06T13:18:42;99762.75;;;5.70;28.20
43298;BME280;28892;55.640;37.532;2024-03-06T13:22:26;99756.31;;;5.33;28.52
43298;BME280;28892;55.640;37.532;2024-03-06T14:20:55;99737.72;;;4.31;29.26
43298;BME280;28892;55.640;37.532;2024-03-06T14:23:30;99723.78;;;4.31;27.90
43298;BME280;28892;55.640;37.532;2024-03-06T14:26:16;99729.69;;;4.23;28.78
43298;BME280;28892;55.640;37.532;2024-03-06T14:28:44;99730.63;;;4.22;28.95
43298;BME280;28892;55.640;37.532;2024-03-06T14:31:23;99728.84;;;4.23;29.01
43298;BME280;28892;55.640;37.532;2024-03-06T14:33:49;99731.06;;;4.27;29.37
43298;BME280;28892;55.640;37.532;2024-03-06T14:36:17;99728.13;;;4.21;28.44
43298;BME280;28892;55.640;37.532;2024-03-06T14:38:47;99727.28;;;3.99;27.21
43298;BME280;28892;55.640;37.532;2024-03-06T14:53:08;99726.41;;;3.44;30.33
43298;BME280;28892;55.640;37.532;2024-03-06T15:17:11;99725.16;;;2.36;29.77
43298;BME280;28892;55.640;37.532;2024-03-06T16:07:34;99732.50;;;2.19;30.56
43298;BME280;28892;55.640;37.532;2024-03-06T16:25:19;99722.72;;;1.74;30.16
43298;BME280;28892;55.640;37.532;2024-03-06T16:28:10;99729.97;;;1.71;29.54
43298;BME280;28892;55.640;37.532;2024-03-06T16:31:41;99728.69;;;1.52;29.87
43298;BME280;28892;55.640;37.532;2024-03-06T16:34:42;99724.72;;;1.46;29.61
43298;BME280;28892;55.640;37.532;2024-03-06T17:01:29;99712.38;;;1.73;30.57
43298;BME280;28892;55.640;37.532;2024-03-06T17:13:29;99706.03;;;1.64;31.40
43298;BME280;28892;55.640;37.532;2024-03-06T17:16:57;99699.38;;;1.95;31.54
43298;BME280;28892;55.640;37.532;2024-03-06T17:24:11;99703.97;;;2.28;31.33
43298;BME280;28892;55.640;37.532;2024-03-06T18:23:38;99710.00;;;1.70;31.88
43298;BME280;28892;55.640;37.532;2024-03-06T18:26:18;99717.31;;;1.64;31.95
43298;BME280;28892;55.640;37.532;2024-03-06T18:29:00;99711.31;;;1.51;31.97
43298;BME280;28892;55.640;37.532;2024-03-06T18:31:28;99711.94;;;1.55;32.04
43298;BME280;28892;55.640;37.532;2024-03-06T18:33:59;99707.44;;;1.57;32.10
43298;BME280;28892;55.640;37.532;2024-03-06T18:36:36;99711.09;;;1.54;32.36
43298;BME280;28892;55.640;37.532;2024-03-06T18:39:54;99708.16;;;1.59;32.38
43298;BME280;28892;55.640;37.532;2024-03-06T18:42:48;99711.38;;;1.62;32.47
43298;BME280;28892;55.640;37.532;2024-03-06T18:45:20;99706.03;;;1.64;32.35
43298;BME280;28892;55.640;37.532;2024-03-06T18:48:07;99708.16;;;1.59;32.09
43298;BME280;28892;55.640;37.532;2024-03-06T18:50:44;99701.34;;;1.56;32.08
43298;BME280;28892;55.640;37.532;2024-03-06T18:53:39;99703.88;;;1.58;32.41
43298;BME280;28892;55.640;37.532;2024-03-06T18:56:58;99707.31;;;1.58;32.69
43298;BME280;28892;55.640;37.532;2024-03-06T18:59:31;99707.09;;;1.61;32.52
43298;BME280;28892;55.640;37.532;2024-03-06T19:02:23;99709.59;;;1.63;32.70
43298;BME280;28892;55.640;37.532;2024-03-06T19:05:20;99708.75;;;1.62;32.44
43298;BME280;28892;55.640;37.532;2024-03-06T19:07:56;99702.81;;;1.60;32.58
43298;BME280;28892;55.640;37.532;2024-03-06T19:10:53;99703.75;;;1.59;32.78
43298;BME280;28892;55.640;37.532;2024-03-06T19:16:41;99693.84;;;1.51;32.24
43298;BME280;28892;55.640;37.532;2024-03-06T19:19:23;99695.75;;;1.49;32.78
43298;BME280;28892;55.640;37.532;2024-03-06T19:21:59;99694.31;;;1.45;32.61
43298;BME280;28892;55.640;37.532;2024-03-06T19:24:40;99692.63;;;1.44;32.91
43298;BME280;28892;55.640;37.532;2024-03-06T19:32:10;99681.63;;;1.52;31.69
43298;BME280;28892;55.640;37.532;2024-03-06T19:34:49;99694.06;;;1.48;31.98
43298;BME280;28892;55.640;37.532;2024-03-06T19:37:52;99689.31;;;1.42;31.06
43298;BME280;28892;55.640;37.532;2024-03-06T20:10:07;99681.88;;;1.11;32.86
43298;BME280;28892;55.640;37.532;2024-03-06T20:12:39;99685.81;;;1.17;33.06
43298;BME280;28892;55.640;37.532;2024-03-06T20:18:49;99680.91;;;1.25;33.41
43298;BME280;28892;55.640;37.532;2024-03-06T20:21:30;99674.63;;;1.28;33.10
43298;BME280;28892;55.640;37.532;2024-03-06T20:24:33;99679.94;;;1.27;33.17
43298;BME280;28892;55.640;37.532;2024-03-06T20:27:30;99679.13;;;1.26;33.21
43298;BME280;28892;55.640;37.532;2024-03-06T20:37:37;99670.97;;;0.93;33.00
43298;BME280;28892;55.640;37.532;2024-03-06T20:41:31;99675.88;;;0.85;32.79
43298;BME280;28892;55.640;37.532;2024-03-06T20:56:14;99673.00;;;0.77;33.62
43298;BME280;28892;55.640;37.532;2024-03-06T21:22:25;99657.91;;;0.43;32.69
43298;BME280;28892;55.640;37.532;2024-03-06T21:24:55;99655.47;;;0.53;33.19
43298;BME280;28892;55.640;37.532;2024-03-06T21:30:50;99660.91;;;0.63;32.33
43298;BME280;28892;55.640;37.532;2024-03-06T21:36:26;99652.75;;;0.67;33.21
43298;BME280;28892;55.640;37.532;2024-03-06T21:39:07;99660.69;;;0.66;32.81
43298;BME280;28892;55.640;37.532;2024-03-06T21:42:21;99656.00;;;0.71;33.38
43298;BME280;28892;55.640;37.532;2024-03-06T21:44:47;99655.69;;;0.63;33.06
43298;BME280;28892;55.640;37.532;2024-03-06T21:47:13;99647.00;;;0.62;32.91
43298;BME280;28892;55.640;37.532;2024-03-06T21:49:48;99655.06;;;0.59;31.89
43298;BME280;28892;55.640;37.532;2024-03-06T21:52:15;99638.44;;;0.60;32.50
43298;BME280;28892;55.640;37.532;2024-03-06T21:54:46;99650.06;;;0.56;32.60
43298;BME280;28892;55.640;37.532;2024-03-06T21:57:19;99652.03;;;0.39;32.31
43298;BME280;28892;55.640;37.532;2024-03-06T21:59:47;99651.72;;;0.31;31.91
43298;BME280;28892;55.640;37.532;2024-03-06T22:02:27;99651.53;;;0.21;31.85
43298;BME280;28892;55.640;37.532;2024-03-06T22:05:24;99651.94;;;0.28;31.85
43298;BME280;28892;55.640;37.532;2024-03-06T22:07:56;99643.41;;;0.39;32.81
43298;BME280;28892;55.640;37.532;2024-03-06T22:10:30;99649.75;;;0.48;32.70
43298;BME280;28892;55.640;37.532;2024-03-06T22:13:16;99646.91;;;0.51;31.85
43298;BME280;28892;55.640;37.532;2024-03-06T22:19:36;99637.22;;;0.40;32.26
43298;BME280;28892;55.640;37.532;2024-03-06T22:22:08;99640.34;;;0.45;32.39
43298;BME280;28892;55.640;37.532;2024-03-06T22:24:40;99644.75;;;0.45;31.88
43298;BME280;28892;55.640;37.532;2024-03-06T22:27:16;99633.47;;;0.44;32.10
43298;BME280;28892;55.640;37.532;2024-03-06T22:29:43;99636.38;;;0.39;31.77
43298;BME280;28892;55.640;37.532;2024-03-06T22:32:12;99638.28;;;0.37;32.03
43298;BME280;28892;55.640;37.532;2024-03-06T22:34:40;99637.00;;;0.43;32.43
43298;BME280;28892;55.640;37.532;2024-03-06T22:37:24;99639.22;;;0.36;32.27
43298;BME280;28892;55.640;37.532;2024-03-06T22:39:52;99646.00;;;0.26;31.79
43298;BME280;28892;55.640;37.532;2024-03-06T22:42:24;99645.78;;;0.29;32.73
43298;BME280;28892;55.640;37.532;2024-03-06T22:45:00;99643.91;;;0.31;32.37
43298;BME280;28892;55.640;37.532;2024-03-06T22:47:27;99646.81;;;0.26;32.05
43298;BME280;28892;55.640;37.532;2024-03-06T22:49:54;99644.66;;;0.20;32.08
43298;BME280;28892;55.640;37.532;2024-03-06T22:52:19;99647.56;;;0.16;32.59
43298;BME280;28892;55.640;37.532;2024-03-06T22:54:47;99644.56;;;0.22;33.07
43298;BME280;28892;55.640;37.532;2024-03-06T22:57:12;99644.03;;;0.17;32.67